Terminal Aerodrome Forecast
Issued by NWS Jackson, KY

Home | Current Version | Previous Version | Text Only | Print | Product List | Glossary On
Versions: 1 2 3 4 5 6 7 8 9 10 11 12 13 14 15 16 17 18 19 20 21 22 23 24 25 26 27
000
FTUS43 KJKL 301317 AAB
TAFJKL
TAF AMD
KJKL 301317Z 3013/3112 VRB03KT 1SM BR BKN005 BKN015
     FM301430 VRB03KT 4SM BR SCT005 BKN015
     FM301500 26004KT P6SM VCSH SCT020 BKN025
     FM301700 26004KT P6SM VCTS SCT025CB BKN045
     FM310600 00000KT 3SM BR SCT001 BKN150=

USA.gov is the U.S. government's official web portal to all federal, state and local government web resources and services.